Time;durP1;ratioP1;P1;durP2;ratioP2;P2;SDS_P1;SDS_P2;PMS_P1;PMS_P2;Temp;Humidity;BMP_temperature;BMP_pressure;BME280_temperature;BME280_humidity;BME280_pressure;Samples;Min_cycle;Max_cycle;Signal;HPM_P1;HPM_P2
2021/06/02 00:01:44;;;;;;;29.72;15.10;;;;;;;7.71;70.07;99413.94;3904169;89;21188;-80
2021/06/02 00:07:49;;;;;;;30.35;14.53;;;;;;;7.66;70.27;99407.91;3888589;90;21091;-81
2021/06/02 00:13:51;;;;;;;27.98;15.05;;;;;;;7.71;70.86;99409.84;3886930;89;21158;-80
2021/06/02 00:19:57;;;;;;;26.70;13.38;;;;;;;7.65;70.87;99398.17;3883726;90;21083;-81
2021/06/02 00:26:02;;;;;;;26.93;14.73;;;;;;;7.36;70.47;99412.88;3884394;90;21109;-80
2021/06/02 00:32:09;;;;;;;30.88;16.70;;;;;;;7.32;71.09;99405.18;3883863;89;21158;-80
2021/06/02 00:38:12;;;;;;;34.95;15.20;;;;;;;7.23;70.93;99406.44;3875259;90;21112;-79
2021/06/02 00:44:18;;;;;;;30.12;15.50;;;;;;;7.14;71.29;99416.67;3876565;90;21805;-80
2021/06/02 00:50:20;;;;;;;28.10;13.85;;;;;;;7.07;71.40;99410.98;3878963;90;21187;-80
2021/06/02 00:56:43;;;;;;;27.00;15.25;;;;;;;7.06;72.13;99412.94;3878198;90;21651;-80
2021/06/02 01:02:53;;;;;;;22.48;12.78;;;;;;;7.17;71.92;99415.39;3872779;90;21648;-80
2021/06/02 01:09:12;;;;;;;26.52;15.25;;;;;;;7.09;72.27;99412.81;3881178;90;21146;-80
2021/06/02 01:15:18;;;;;;;23.22;12.80;;;;;;;7.01;72.30;99417.80;3880524;90;21092;-81
2021/06/02 01:21:24;;;;;;;28.30;15.63;;;;;;;6.84;72.13;99413.95;3883870;90;21592;-79
2021/06/02 01:27:26;;;;;;;27.02;14.25;;;;;;;6.82;72.25;99418.93;3959133;88;21150;-80
2021/06/02 01:33:44;;;;;;;25.12;14.63;;;;;;;6.62;72.81;99419.83;3970737;88;21148;-80
2021/06/02 01:40:23;;;;;;;31.12;15.60;;;;;;;6.49;72.85;99422.29;3979343;88;21182;-81
2021/06/02 01:46:54;;;;;;;22.45;13.20;;;;;;;6.48;72.87;99430.23;3990161;88;21145;-80
2021/06/02 01:53:25;;;;;;;24.57;13.85;;;;;;;6.37;73.37;99433.95;3993518;86;21401;-80
2021/06/02 02:00:01;;;;;;;25.20;14.23;;;;;;;6.15;73.07;99438.42;3994098;88;21637;-80
2021/06/02 02:06:43;;;;;;;23.95;14.38;;;;;;;5.99;73.27;99443.69;3991858;88;21113;-80
2021/06/02 02:13:01;;;;;;;23.02;12.88;;;;;;;5.85;73.41;99452.69;3991352;88;21137;-81
2021/06/02 02:19:25;;;;;;;29.00;14.95;;;;;;;5.98;74.49;99446.16;3988666;88;21589;-81
2021/06/02 02:25:47;;;;;;;24.50;14.20;;;;;;;5.98;73.87;99453.53;3991797;88;21763;-80
2021/06/02 02:32:34;;;;;;;21.55;12.65;;;;;;;5.86;73.96;99453.45;3990961;88;21121;-81
2021/06/02 02:39:00;;;;;;;26.30;12.90;;;;;;;5.81;75.00;99443.56;3963789;87;21074;-80
2021/06/02 02:45:32;;;;;;;22.42;13.08;;;;;;;5.64;74.54;99450.49;3864226;90;21730;-80
2021/06/02 02:52:16;;;;;;;29.20;13.22;;;;;;;5.48;74.65;99460.93;3954381;88;21194;-80
2021/06/02 02:58:52;;;;;;;29.23;14.53;;;;;;;5.70;75.56;99464.69;3892974;90;21068;-81
2021/06/02 03:04:57;;;;;;;21.75;13.85;;;;;;;6.05;75.66;99463.28;3834091;91;21207;-80
2021/06/02 03:11:23;;;;;;;26.75;15.68;;;;;;;6.06;75.08;99475.77;3952599;88;21665;-80
2021/06/02 03:17:58;;;;;;;23.00;13.80;;;;;;;5.84;74.93;99486.39;3958889;88;21086;-80
2021/06/02 03:24:23;;;;;;;21.42;13.10;;;;;;;5.82;75.55;99487.31;3961542;88;21141;-80
2021/06/02 03:30:37;;;;;;;22.10;13.18;;;;;;;5.68;75.12;99484.03;3964040;88;21079;-81
2021/06/02 03:37:21;;;;;;;21.27;13.98;;;;;;;5.56;75.25;99494.80;3939445;88;21434;-81
2021/06/02 03:43:44;;;;;;;25.48;14.70;;;;;;;5.56;75.72;99492.08;3930353;89;21167;-80
2021/06/02 03:50:22;;;;;;;23.45;14.85;;;;;;;5.73;76.73;99491.95;3933682;89;21254;-80
2021/06/02 03:57:02;;;;;;;25.45;15.13;;;;;;;5.89;76.79;99500.34;3931423;89;21123;-80
2021/06/02 04:03:14;;;;;;;33.42;16.73;;;;;;;6.15;77.00;99508.52;3833838;91;21076;-80
2021/06/02 04:09:28;;;;;;;28.07;15.78;;;;;;;6.48;77.31;99513.98;3930375;89;21824;-80
2021/06/02 04:15:35;;;;;;;24.27;15.15;;;;;;;6.74;77.22;99510.42;3933313;88;21138;-80
2021/06/02 04:21:41;;;;;;;23.73;14.53;;;;;;;6.92;77.10;99519.19;3930557;89;21122;-80
2021/06/02 04:27:46;;;;;;;35.13;16.67;;;;;;;7.08;77.21;99518.77;3932022;89;21090;-81
2021/06/02 04:33:49;;;;;;;31.25;16.93;;;;;;;7.33;77.15;99525.81;3937931;88;21130;-80
2021/06/02 04:39:52;;;;;;;35.45;17.12;;;;;;;7.62;77.23;99535.09;3961002;88;21769;-82
2021/06/02 04:46:00;;;;;;;28.55;18.10;;;;;;;7.86;76.83;99541.89;3963467;88;21807;-81
2021/06/02 04:52:40;;;;;;;28.12;15.70;;;;;;;8.02;76.93;99534.56;3960598;88;21105;-81
2021/06/02 04:59:27;;;;;;;;;;;;;;;;;;;;;
2021/06/02 05:06:15;;;;;;;27.37;15.20;;;;;;;8.28;76.46;99546.45;3860997;90;21139;-81
2021/06/02 05:12:58;;;;;;;28.25;14.80;;;;;;;8.39;76.35;99548.91;3880527;90;21624;-81
2021/06/02 05:19:49;;;;;;;25.43;14.83;;;;;;;8.50;76.56;99557.64;3879188;90;21175;-80
2021/06/02 05:26:01;;;;;;;17.62;11.75;;;;;;;8.63;77.00;99561.88;3878760;90;21140;-79
2021/06/02 05:32:11;;;;;;;18.05;10.10;;;;;;;8.92;76.93;99567.55;3869166;90;21132;-80
2021/06/02 05:38:52;;;;;;;20.55;10.28;;;;;;;9.18;76.63;99571.36;3860973;90;21100;-80
2021/06/02 05:45:31;;;;;;;16.15;8.58;;;;;;;9.44;76.54;99579.05;3862907;91;21044;-79
2021/06/02 05:52:05;;;;;;;14.53;9.53;;;;;;;9.67;76.48;99577.26;3857978;91;21169;-81
2021/06/02 05:58:36;;;;;;;12.33;8.18;;;;;;;9.91;76.43;99578.42;3857064;91;21619;-81
2021/06/02 06:05:02;;;;;;;15.00;9.28;;;;;;;10.28;76.43;99583.77;3860102;91;21163;-80
2021/06/02 06:11:36;;;;;;;17.12;8.78;;;;;;;10.71;76.35;99590.31;3865675;91;21234;-80
2021/06/02 06:18:02;;;;;;;18.73;7.83;;;;;;;11.16;76.07;99600.58;3855552;91;21132;-80
2021/06/02 06:24:11;;;;;;;10.78;6.95;;;;;;;11.62;75.72;99590.42;3847568;91;21167;-80
2021/06/02 06:30:34;;;;;;;16.35;7.70;;;;;;;12.08;75.56;99591.93;3861200;91;21611;-81
2021/06/02 06:36:37;;;;;;;14.18;7.20;;;;;;;12.51;75.04;99598.23;3871528;90;21158;-81
2021/06/02 06:43:33;;;;;;;15.25;7.47;;;;;;;12.95;74.49;99588.14;4546953;76;22900;-81
2021/06/02 06:49:36;;;;;;;13.65;8.10;;;;;;;13.22;73.73;99593.76;4515225;77;21575;-80
2021/06/02 06:55:39;;;;;;;15.78;7.62;;;;;;;13.48;73.54;99592.26;4462478;77;21078;-83
2021/06/02 07:01:42;;;;;;;13.60;6.30;;;;;;;14.00;73.11;99596.60;4433971;79;21071;-80
2021/06/02 07:07:46;;;;;;;15.53;8.90;;;;;;;14.61;72.17;99597.16;4434570;79;21539;-81
2021/06/02 07:13:49;;;;;;;16.07;8.23;;;;;;;15.54;71.30;99587.58;4431340;79;21320;-81
2021/06/02 07:20:04;;;;;;;12.75;7.62;;;;;;;16.46;70.24;99585.51;4432796;79;21036;-82
2021/06/02 07:26:08;;;;;;;13.93;7.50;;;;;;;17.22;69.28;99586.94;4434387;79;21032;-81
2021/06/02 07:32:21;;;;;;;16.85;5.45;;;;;;;17.91;67.75;99582.09;4436468;79;20969;-82
2021/06/02 07:38:22;;;;;;;7.20;4.08;;;;;;;18.58;66.41;99584.98;4440866;78;21072;-84
2021/06/02 07:44:25;;;;;;;7.55;3.95;;;;;;;19.12;65.01;99589.24;4455302;78;21422;-80
2021/06/02 07:50:26;;;;;;;6.95;3.80;;;;;;;19.31;53.84;99580.28;4466825;78;21038;-80
2021/06/02 07:56:28;;;;;;;3.70;2.60;;;;;;;19.54;58.92;99580.31;4454743;78;20981;-80
2021/06/02 08:02:29;;;;;;;10.08;3.58;;;;;;;19.01;57.38;99581.07;4465327;78;21545;-81
2021/06/02 08:08:32;;;;;;;4.20;2.98;;;;;;;18.48;56.60;99580.33;4460496;78;21055;-80
2021/06/02 08:14:34;;;;;;;7.37;2.22;;;;;;;17.96;56.01;99596.09;4442517;79;21090;-81
2021/06/02 08:20:35;;;;;;;4.00;1.70;;;;;;;17.75;54.93;99594.88;4468589;78;21008;-80
2021/06/02 08:26:38;;;;;;;2.95;1.27;;;;;;;17.98;49.33;99601.40;4456403;78;21649;-81
2021/06/02 08:32:41;;;;;;;6.05;1.45;;;;;;;18.42;46.30;99602.77;4458484;78;21074;-79
2021/06/02 08:38:43;;;;;;;6.83;1.90;;;;;;;18.77;48.15;99595.24;4459638;78;21041;-80
2021/06/02 08:44:46;;;;;;;4.97;1.77;;;;;;;18.88;48.25;99609.17;4431179;79;20989;-81
2021/06/02 08:50:48;;;;;;;2.10;1.37;;;;;;;18.60;47.33;99605.36;4436209;79;21001;-81
2021/06/02 08:56:50;;;;;;;3.72;1.55;;;;;;;18.84;45.47;99590.38;4436239;79;21016;-78
2021/06/02 09:02:53;;;;;;;2.83;1.32;;;;;;;19.30;43.01;99600.89;4433981;79;21026;-81
2021/06/02 09:08:56;;;;;;;3.25;2.17;;;;;;;18.79;44.26;99592.84;4428091;79;21088;-81
2021/06/02 09:15:22;;;;;;;4.65;2.02;;;;;;;18.93;44.71;99596.23;4432198;79;20994;-81
2021/06/02 09:21:30;;;;;;;2.55;1.50;;;;;;;19.02;43.64;99599.88;4434037;79;21066;-80
2021/06/02 09:27:54;;;;;;;3.98;1.90;;;;;;;19.33;43.85;99591.13;4432486;79;21034;-81
2021/06/02 09:34:15;;;;;;;2.67;1.87;;;;;;;19.41;42.67;99595.98;4427437;79;21472;-80
2021/06/02 09:40:30;;;;;;;5.60;2.12;;;;;;;19.22;42.93;99590.47;4441969;78;21057;-80
2021/06/02 09:46:32;;;;;;;4.30;2.00;;;;;;;19.66;40.66;99585.27;4465522;78;21036;-82
2021/06/02 09:52:55;;;;;;;5.08;1.98;;;;;;;20.52;37.28;99588.31;4471708;78;21616;-81
2021/06/02 09:59:08;;;;;;;3.25;1.45;;;;;;;20.97;40.72;99582.44;4390280;80;21068;-82
2021/06/02 10:05:19;;;;;;;7.10;1.90;;;;;;;21.18;33.07;99587.55;4354668;80;21041;-83
2021/06/02 10:11:31;;;;;;;3.55;1.65;;;;;;;21.18;35.29;99583.38;4425600;79;21042;-81
2021/06/02 10:17:43;;;;;;;2.90;1.60;;;;;;;21.54;34.73;99584.13;4417471;79;21174;-81
2021/06/02 10:23:55;;;;;;;5.25;1.98;;;;;;;21.30;34.85;99572.95;4298787;81;21149;-81
2021/06/02 10:30:22;;;;;;;2.83;1.70;;;;;;;21.84;35.62;99573.87;4301036;81;21042;-81
2021/06/02 10:36:20;;;;;;;2.77;1.92;;;;;;;22.11;31.59;99570.20;4414034;79;21031;-82
2021/06/02 10:42:34;;;;;;;3.27;1.75;;;;;;;20.89;35.73;99572.64;4419642;79;21050;-81
2021/06/02 10:49:01;;;;;;;5.20;1.90;;;;;;;21.50;35.73;99581.26;4419361;79;21037;-82
2021/06/02 10:55:47;;;;;;;3.20;2.10;;;;;;;21.45;34.25;99583.95;4298518;81;21058;-82
2021/06/02 11:02:36;;;;;;;5.37;1.77;;;;;;;22.16;34.07;99580.82;4362739;79;21000;-81
2021/06/02 11:09:08;;;;;;;4.42;2.27;;;;;;;21.55;35.29;99586.28;4407136;79;21270;-82
2021/06/02 11:15:38;;;;;;;4.78;1.95;;;;;;;20.97;35.75;99585.22;4401251;79;21008;-80
2021/06/02 11:21:59;;;;;;;3.60;1.80;;;;;;;21.73;35.67;99586.66;4424542;79;21004;-81
2021/06/02 11:28:14;;;;;;;4.47;1.70;;;;;;;21.94;35.42;99572.84;4270578;81;21059;-82
2021/06/02 11:34:49;;;;;;;6.60;1.85;;;;;;;22.12;36.08;99573.94;4373098;80;21141;-81
2021/06/02 11:40:55;;;;;;;6.50;1.90;;;;;;;22.29;35.84;99578.25;4393944;79;21380;-80
2021/06/02 11:46:57;;;;;;;2.85;1.77;;;;;;;22.57;34.90;99578.90;4421626;79;21078;-83
2021/06/02 11:53:01;;;;;;;2.92;1.62;;;;;;;23.36;34.64;99584.55;4424938;79;21033;-81
2021/06/02 11:59:09;;;;;;;6.37;2.55;;;;;;;23.51;34.75;99577.91;4424843;79;21023;-81
2021/06/02 12:05:30;;;;;;;4.92;2.27;;;;;;;23.37;29.63;99577.73;4423942;79;21012;-80
2021/06/02 12:11:32;;;;;;;4.42;1.87;;;;;;;22.64;32.30;99573.73;4424755;79;21509;-80
2021/06/02 12:17:35;;;;;;;6.30;2.40;;;;;;;22.98;32.84;99578.91;4422271;79;21674;-80
2021/06/02 12:23:58;;;;;;;5.97;1.95;;;;;;;22.57;32.93;99568.34;4423544;79;21552;-80
2021/06/02 12:30:30;;;;;;;3.87;2.27;;;;;;;22.57;32.93;99568.34;4422120;79;21816;-81
2021/06/02 12:36:33;;;;;;;5.12;2.00;;;;;;;22.19;33.27;99575.76;4414340;79;21039;-80
2021/06/02 12:42:42;;;;;;;5.17;2.30;;;;;;;21.92;33.97;99580.24;4420468;79;21095;-81
2021/06/02 12:48:45;;;;;;;3.00;2.17;;;;;;;21.78;33.74;99575.63;4331979;81;20983;-81
2021/06/02 12:54:48;;;;;;;3.02;2.55;;;;;;;21.63;34.01;99588.48;4387262;80;21038;-80
2021/06/02 13:00:53;;;;;;;4.50;2.10;;;;;;;21.59;33.94;99581.43;4306576;81;21049;-80
2021/06/02 13:06:58;;;;;;;4.40;2.25;;;;;;;21.52;33.50;99576.80;4312902;81;21069;-80
2021/06/02 13:13:07;;;;;;;2.10;1.90;;;;;;;21.36;33.82;99578.80;4322533;81;22231;-81
2021/06/02 13:19:07;;;;;;;5.28;2.15;;;;;;;21.32;33.92;99578.09;4292438;81;21079;-81
2021/06/02 13:25:10;;;;;;;3.37;2.12;;;;;;;21.12;34.43;99583.72;4309098;81;21052;-80
2021/06/02 13:31:13;;;;;;;2.85;1.72;;;;;;;20.52;34.58;99575.80;4307926;81;22242;-81
2021/06/02 13:37:20;;;;;;;5.92;2.42;;;;;;;20.57;34.58;99577.30;4308317;81;21087;-81
2021/06/02 13:43:22;;;;;;;3.87;2.45;;;;;;;20.75;34.19;99577.73;4290747;81;21111;-79
2021/06/02 13:49:36;;;;;;;5.60;2.35;;;;;;;20.70;35.13;99587.97;4270594;81;21038;-80
2021/06/02 13:55:38;;;;;;;5.62;2.42;;;;;;;20.58;35.35;99585.21;4309205;81;21067;-79
2021/06/02 14:01:44;;;;;;;5.03;2.15;;;;;;;20.54;35.62;99592.06;4305610;81;21025;-80
2021/06/02 14:07:46;;;;;;;4.50;2.40;;;;;;;20.45;34.76;99591.25;4309951;81;21534;-81
2021/06/02 14:13:48;;;;;;;3.85;2.35;;;;;;;20.71;35.23;99588.93;4309807;81;21047;-80
2021/06/02 14:19:50;;;;;;;3.75;2.50;;;;;;;21.02;33.48;99595.06;4313595;81;21037;-80
2021/06/02 14:25:51;;;;;;;4.92;2.25;;;;;;;20.87;34.81;99603.52;4309655;81;21081;-80
2021/06/02 14:31:55;;;;;;;2.98;1.90;;;;;;;20.80;35.79;99597.48;4313541;81;21093;-78
2021/06/02 14:37:57;;;;;;;5.15;2.70;;;;;;;20.91;35.55;99606.99;4308234;81;21071;-80
2021/06/02 14:44:00;;;;;;;4.37;1.80;;;;;;;20.93;35.67;99603.18;4321566;81;21610;-79
2021/06/02 14:50:06;;;;;;;5.97;2.08;;;;;;;21.01;35.98;99602.64;4323985;81;21022;-79
2021/06/02 14:56:09;;;;;;;5.20;2.50;;;;;;;21.06;35.51;99593.80;4317243;81;21082;-79
2021/06/02 15:02:12;;;;;;;7.65;3.40;;;;;;;21.03;35.40;99596.02;4284599;81;21062;-81
2021/06/02 15:08:13;;;;;;;2.77;1.80;;;;;;;20.95;35.88;99602.95;4324127;81;20998;-79
2021/06/02 15:14:15;;;;;;;3.80;1.98;;;;;;;20.73;35.65;99603.80;4323397;81;21012;-80
2021/06/02 15:20:20;;;;;;;3.85;2.10;;;;;;;20.48;35.70;99600.13;4271322;82;21588;-80
2021/06/02 15:26:23;;;;;;;4.67;1.90;;;;;;;20.37;35.20;99599.55;4268591;82;21034;-81
2021/06/02 15:32:28;;;;;;;2.27;1.90;;;;;;;20.17;35.74;99605.05;4323582;82;21113;-81
2021/06/02 15:38:30;;;;;;;4.00;1.60;;;;;;;20.10;35.37;99596.83;4347823;80;21051;-79
2021/06/02 15:44:36;;;;;;;3.25;2.00;;;;;;;20.02;35.61;99598.16;4307235;81;21105;-82
2021/06/02 15:50:37;;;;;;;7.45;2.47;;;;;;;19.94;35.77;99599.48;4253042;83;21044;-80
2021/06/02 15:56:40;;;;;;;3.58;1.92;;;;;;;19.82;36.37;99598.70;4392434;80;21083;-79
2021/06/02 16:02:42;;;;;;;4.40;2.30;;;;;;;19.70;36.70;99599.28;4284992;82;21064;-80
2021/06/02 16:08:44;;;;;;;5.42;2.33;;;;;;;19.56;36.65;99599.50;4390462;81;21007;-79
2021/06/02 16:14:54;;;;;;;4.05;2.15;;;;;;;19.46;36.69;99591.34;4283189;82;21600;-80
2021/06/02 16:21:05;;;;;;;3.47;1.90;;;;;;;19.42;36.83;99590.00;4394318;79;21598;-79
2021/06/02 16:27:09;;;;;;;2.98;1.85;;;;;;;19.36;37.19;99593.07;4285011;83;21103;-78
2021/06/02 16:33:21;;;;;;;4.00;1.82;;;;;;;19.37;37.28;99593.24;4385464;81;21541;-79
2021/06/02 16:39:24;;;;;;;4.72;2.25;;;;;;;19.29;37.18;99595.17;4381072;79;21072;-79
2021/06/02 16:45:29;;;;;;;5.40;2.37;;;;;;;19.22;36.98;99596.61;4275657;82;21033;-78
2021/06/02 16:51:34;;;;;;;4.08;2.52;;;;;;;19.10;37.48;99595.21;4316408;81;21168;-80
2021/06/02 16:57:40;;;;;;;3.67;2.37;;;;;;;19.00;37.40;99605.84;4325698;81;21566;-83
2021/06/02 17:03:41;;;;;;;4.58;2.37;;;;;;;18.91;37.65;99611.11;4185208;81;9999674;-79
2021/06/02 17:09:48;;;;;;;2.92;2.22;;;;;;;18.74;37.66;99618.44;4285601;81;21038;-79
2021/06/02 17:15:50;;;;;;;5.75;2.37;;;;;;;18.61;38.04;99620.78;4318424;81;21056;-79
2021/06/02 17:21:54;;;;;;;6.62;2.42;;;;;;;18.48;38.13;99623.89;4319000;81;21589;-80
2021/06/02 17:28:01;;;;;;;6.55;2.70;;;;;;;18.35;37.95;99623.59;4316611;81;20974;-80
2021/06/02 17:34:03;;;;;;;9.75;2.70;;;;;;;18.23;38.41;99631.64;4318087;81;20999;-79
2021/06/02 17:40:12;;;;;;;2.08;1.70;;;;;;;18.09;38.54;99635.34;4322442;81;20954;-79
2021/06/02 17:46:22;;;;;;;4.42;2.27;;;;;;;17.97;38.78;99632.28;4295613;82;21129;-79
2021/06/02 17:52:28;;;;;;;7.50;2.87;;;;;;;17.86;39.12;99636.53;4310119;81;20928;-79
2021/06/02 17:58:33;;;;;;;4.62;2.90;;;;;;;17.72;39.58;99630.31;4327302;82;20979;-79
2021/06/02 18:04:35;;;;;;;6.10;2.92;;;;;;;17.57;39.81;99632.38;4153591;81;10000376;-79
2021/06/02 18:10:36;;;;;;;4.03;2.67;;;;;;;17.41;40.25;99636.83;4321154;81;20999;-80
2021/06/02 18:16:41;;;;;;;5.92;3.20;;;;;;;17.29;40.42;99638.06;4314491;81;21914;-79
2021/06/02 18:22:50;;;;;;;4.65;2.95;;;;;;;17.14;40.83;99641.53;4312245;81;21076;-79
2021/06/02 18:28:55;;;;;;;4.87;2.87;;;;;;;16.98;41.13;99649.50;4326433;81;21976;-78
2021/06/02 18:34:57;;;;;;;6.25;3.92;;;;;;;16.81;41.57;99654.51;4328365;82;20971;-79
2021/06/02 18:40:59;;;;;;;8.68;3.98;;;;;;;16.63;42.12;99655.14;4324357;81;20978;-79
2021/06/02 18:47:01;;;;;;;7.78;3.90;;;;;;;16.41;42.48;99663.25;4313463;81;21034;-80
2021/06/02 18:53:03;;;;;;;7.30;4.53;;;;;;;16.19;42.82;99671.98;4313450;81;20944;-79
2021/06/02 18:59:05;;;;;;;14.58;6.50;;;;;;;15.91;43.42;99683.03;4316390;81;20991;-80
2021/06/02 19:05:08;;;;;;;23.70;9.20;;;;;;;15.60;44.22;99693.63;4201287;81;9999527;-79
2021/06/02 19:11:09;;;;;;;11.83;6.85;;;;;;;15.25;44.97;99694.88;4323600;81;21530;-80
2021/06/02 19:17:12;;;;;;;11.78;6.17;;;;;;;14.94;45.40;99695.53;4317092;80;21544;-80
2021/06/02 19:23:15;;;;;;;15.13;7.05;;;;;;;14.76;45.87;99704.90;4321371;81;21949;-82
2021/06/02 19:29:16;;;;;;;11.93;7.78;;;;;;;14.52;46.52;99706.94;4323630;81;21896;-79
2021/06/02 19:35:20;;;;;;;14.33;8.40;;;;;;;14.24;47.18;99711.63;4316705;81;20985;-80
2021/06/02 19:41:22;;;;;;;16.42;7.95;;;;;;;14.01;47.87;99715.16;4313572;81;21014;-80
2021/06/02 19:47:23;;;;;;;20.43;11.93;;;;;;;13.71;48.75;99724.11;4294420;81;21002;-80
2021/06/02 19:53:24;;;;;;;31.85;15.50;;;;;;;13.31;49.64;99729.57;4228847;82;20948;-80
2021/06/02 19:59:27;;;;;;;30.75;13.95;;;;;;;13.18;50.12;99731.78;4301081;81;20975;-80
2021/06/02 20:05:41;;;;;;;22.52;13.08;;;;;;;13.06;50.76;99738.87;4327584;80;21495;-80
2021/06/02 20:12:02;;;;;;;24.15;12.78;;;;;;;12.89;51.88;99734.50;4294660;81;21066;-80
2021/06/02 20:18:08;;;;;;;21.37;11.90;;;;;;;12.44;51.92;99745.02;4302903;81;21601;-79
2021/06/02 20:24:12;;;;;;;25.68;11.40;;;;;;;12.24;52.89;99755.31;4324247;80;21079;-79
2021/06/02 20:36:38;;;;;;;27.70;10.48;;;;;;;12.27;54.65;99766.13;4298547;81;21022;-78
2021/06/02 20:42:52;;;;;;;19.65;10.15;;;;;;;12.16;54.62;99763.22;4298636;81;21086;-80
2021/06/02 20:48:57;;;;;;;17.57;11.10;;;;;;;11.98;55.44;99771.70;4311580;81;21475;-80
2021/06/02 20:55:04;;;;;;;19.23;10.93;;;;;;;11.70;55.93;99772.56;4306229;81;21086;-80
2021/06/02 21:01:13;;;;;;;18.65;11.03;;;;;;;11.58;57.55;99776.81;4305907;81;21012;-80
2021/06/02 21:07:22;;;;;;;18.60;11.63;;;;;;;11.39;56.87;99779.56;4272312;81;21466;-80
2021/06/02 21:13:26;;;;;;;24.47;12.70;;;;;;;11.41;57.91;99777.27;4319584;81;20978;-80
2021/06/02 21:19:53;;;;;;;;;;;;;;;;;;;;;
2021/06/02 21:25:42;;;;;;;24.57;13.10;;;;;;;11.16;58.12;99782.00;4297378;81;21680;-80
2021/06/02 21:31:54;;;;;;;25.02;12.40;;;;;;;10.98;58.63;99776.95;4292678;81;21094;-80
2021/06/02 21:44:42;;;;;;;24.30;13.83;;;;;;;10.53;59.86;99782.18;4272453;81;21602;-79
2021/06/02 21:50:52;;;;;;;30.27;15.13;;;;;;;10.36;60.79;99793.50;4342062;80;21035;-79
2021/06/02 21:56:59;;;;;;;22.90;15.15;;;;;;;10.30;61.20;99795.48;4321112;81;21005;-79
2021/06/02 22:03:00;;;;;;;21.00;11.90;;;;;;;10.16;61.27;99801.97;4323539;81;21057;-79
2021/06/02 22:09:15;;;;;;;20.32;12.50;;;;;;;10.23;62.55;99800.20;4322330;81;21018;-79
2021/06/02 22:15:17;;;;;;;24.07;13.95;;;;;;;10.26;62.80;99793.22;4318537;80;21054;-80
2021/06/02 22:21:20;;;;;;;23.70;14.75;;;;;;;10.20;62.34;99793.27;4326991;81;21030;-79
2021/06/02 22:27:27;;;;;;;25.08;15.75;;;;;;;9.79;63.10;99786.31;4265431;82;21124;-79
2021/06/02 22:33:29;;;;;;;24.70;14.38;;;;;;;9.71;63.72;99788.63;4318217;81;21009;-79
2021/06/02 22:39:42;;;;;;;31.80;16.17;;;;;;;9.43;63.68;99796.05;4319205;81;21099;-79
2021/06/02 22:45:42;;;;;;;26.80;14.25;;;;;;;9.46;64.34;99803.56;4314589;81;21097;-79
2021/06/02 22:51:44;;;;;;;25.40;13.58;;;;;;;9.34;64.56;99797.59;4311227;81;21077;-79
2021/06/02 22:57:55;;;;;;;27.62;14.53;;;;;;;9.57;65.21;99796.45;4332693;80;21064;-80
2021/06/02 23:03:54;;;;;;;26.02;13.65;;;;;;;9.39;65.08;99798.71;4317938;81;21028;-79
2021/06/02 23:09:58;;;;;;;26.80;14.35;;;;;;;9.23;65.36;99789.66;4336008;80;21523;-79
2021/06/02 23:16:00;;;;;;;23.55;13.15;;;;;;;9.20;66.01;99788.98;4307188;81;21111;-78
2021/06/02 23:22:05;;;;;;;23.38;14.47;;;;;;;8.89;65.82;99790.20;4314757;81;20992;-79
2021/06/02 23:28:08;;;;;;;25.65;13.70;;;;;;;8.80;66.47;99781.33;4323489;81;21522;-79
2021/06/02 23:34:14;;;;;;;25.90;13.48;;;;;;;8.87;67.08;99774.73;4325014;81;21043;-79
2021/06/02 23:40:17;;;;;;;22.70;13.50;;;;;;;8.86;66.58;99794.19;4336987;80;21043;-79
2021/06/02 23:46:20;;;;;;;27.22;14.10;;;;;;;8.54;67.06;99804.67;4317785;81;21058;-79
2021/06/02 23:52:30;;;;;;;28.77;14.33;;;;;;;8.43;67.98;99800.24;4323522;81;21057;-78
2021/06/02 23:58:35;;;;;;;25.05;14.50;;;;;;;8.62;68.65;99804.56;4313360;81;21054;-78
